Time;durP1;ratioP1;P1;durP2;ratioP2;P2;SDS_P1;SDS_P2;PMS_P1;PMS_P2;Temp;Humidity;BMP_temperature;BMP_pressure;BME280_temperature;BME280_humidity;BME280_pressure;Samples;Min_cycle;Max_cycle;Signal;HPM_P1;HPM_P2
2023/03/02 00:02:05;;;;;;;8.20;3.80;;;;;;;;;;5041004;28;20485;-76
2023/03/02 00:04:32;;;;;;;6.30;3.78;;;;;;;;;;5035237;28;20037;-77
2023/03/02 00:07:03;;;;;;;7.25;3.90;;;;;;;;;;5042675;28;20029;-76
2023/03/02 00:09:29;;;;;;;6.38;3.75;;;;;;;;;;5028082;28;20024;-76
2023/03/02 00:11:54;;;;;;;9.02;4.25;;;;;;;;;;5049444;28;20024;-76
2023/03/02 00:14:20;;;;;;;7.32;4.05;;;;;;;;;;5044866;28;20029;-76
2023/03/02 00:16:45;;;;;;;9.60;3.92;;;;;;;;;;5047468;28;20017;-76
2023/03/02 00:19:11;;;;;;;8.15;4.10;;;;;;;;;;5025720;28;20025;-76
2023/03/02 00:21:36;;;;;;;8.15;4.03;;;;;;;;;;5051840;28;20084;-76
2023/03/02 00:24:01;;;;;;;7.32;3.80;;;;;;;;;;5049792;28;20024;-76
2023/03/02 00:26:27;;;;;;;7.70;3.83;;;;;;;;;;5053299;28;20428;-76
2023/03/02 00:28:52;;;;;;;8.45;3.95;;;;;;;;;;5042795;28;20472;-76
2023/03/02 00:31:18;;;;;;;7.30;4.20;;;;;;;;;;5053737;28;20017;-76
2023/03/02 00:33:44;;;;;;;8.00;3.97;;;;;;;;;;5045556;28;20025;-76
2023/03/02 00:36:17;;;;;;;8.45;4.13;;;;;;;;;;5050119;28;20033;-76
2023/03/02 00:38:43;;;;;;;7.57;3.67;;;;;;;;;;5048441;28;20503;-76
2023/03/02 00:41:10;;;;;;;7.70;4.35;;;;;;;;;;5050679;28;20032;-76
2023/03/02 00:43:36;;;;;;;7.65;4.30;;;;;;;;;;5031802;28;20021;-76
2023/03/02 00:46:08;;;;;;;7.80;4.28;;;;;;;;;;5051707;28;20036;-76
2023/03/02 00:48:34;;;;;;;8.60;4.38;;;;;;;;;;5050321;28;20025;-77
2023/03/02 00:51:00;;;;;;;8.70;4.63;;;;;;;;;;5033519;28;20086;-76
2023/03/02 00:53:25;;;;;;;6.93;4.20;;;;;;;;;;5031689;28;20066;-76
2023/03/02 00:55:53;;;;;;;9.23;4.53;;;;;;;;;;5049773;28;20191;-76
2023/03/02 00:58:20;;;;;;;10.02;5.05;;;;;;;;;;5031081;28;20041;-76
2023/03/02 01:00:45;;;;;;;10.52;5.00;;;;;;;;;;5047178;28;20021;-76
2023/03/02 01:03:10;;;;;;;9.55;4.90;;;;;;;;;;5025332;28;20428;-76
2023/03/02 01:05:37;;;;;;;9.88;5.50;;;;;;;;;;5031665;28;20033;-76
2023/03/02 01:08:02;;;;;;;11.30;5.32;;;;;;;;;;5050296;28;20481;-76
2023/03/02 01:10:30;;;;;;;10.98;5.45;;;;;;;;;;5050565;28;20021;-76
2023/03/02 01:12:55;;;;;;;9.52;5.38;;;;;;;;;;5031659;28;20117;-76
2023/03/02 01:15:21;;;;;;;10.30;5.35;;;;;;;;;;5029376;28;20107;-76
2023/03/02 01:17:46;;;;;;;10.93;6.15;;;;;;;;;;5028508;28;20091;-76
2023/03/02 01:20:13;;;;;;;10.05;5.82;;;;;;;;;;5045778;28;20036;-76
2023/03/02 01:22:38;;;;;;;11.63;5.85;;;;;;;;;;5040051;28;20492;-76
2023/03/02 01:25:04;;;;;;;10.40;6.13;;;;;;;;;;5045259;28;20025;-76
2023/03/02 01:27:29;;;;;;;11.20;6.45;;;;;;;;;;5047195;28;20020;-76
2023/03/02 01:29:55;;;;;;;12.35;6.80;;;;;;;;;;5050286;28;20047;-76
2023/03/02 01:32:20;;;;;;;14.35;7.30;;;;;;;;;;5049139;28;20082;-76
2023/03/02 01:34:46;;;;;;;15.45;7.97;;;;;;;;;;5028087;28;20067;-76
2023/03/02 01:37:11;;;;;;;14.50;7.35;;;;;;;;;;5045896;28;20033;-76
2023/03/02 01:39:36;;;;;;;14.48;8.18;;;;;;;;;;5044126;28;20064;-76
2023/03/02 01:42:02;;;;;;;17.23;8.70;;;;;;;;;;5043287;28;20028;-76
2023/03/02 01:44:41;;;;;;;18.77;9.23;;;;;;;;;;5044408;28;20083;-76
2023/03/02 01:47:26;;;;;;;19.08;9.57;;;;;;;;;;5052228;28;20025;-76
2023/03/02 01:49:58;;;;;;;17.63;9.27;;;;;;;;;;5050692;28;20067;-76
2023/03/02 01:52:25;;;;;;;17.55;9.30;;;;;;;;;;5031166;28;20029;-76
2023/03/02 01:54:54;;;;;;;19.38;10.25;;;;;;;;;;5048239;28;20164;-76
2023/03/02 01:57:24;;;;;;;19.95;10.43;;;;;;;;;;5044112;28;20021;-77
2023/03/02 01:59:55;;;;;;;21.33;10.82;;;;;;;;;;5046833;28;20029;-76
2023/03/02 02:02:20;;;;;;;20.17;10.55;;;;;;;;;;5045987;28;20029;-76
2023/03/02 02:04:47;;;;;;;22.25;11.32;;;;;;;;;;5044870;28;20029;-77
2023/03/02 02:07:13;;;;;;;20.80;11.15;;;;;;;;;;5028104;28;20033;-76
2023/03/02 02:09:43;;;;;;;23.23;11.43;;;;;;;;;;5010545;28;20033;-77
2023/03/02 02:12:17;;;;;;;21.88;10.65;;;;;;;;;;5041020;28;20033;-76
2023/03/02 02:14:44;;;;;;;21.50;11.25;;;;;;;;;;5045789;28;20025;-76
2023/03/02 02:17:11;;;;;;;23.25;10.90;;;;;;;;;;5041950;28;20053;-76
2023/03/02 02:20:06;;;;;;;24.38;12.40;;;;;;;;;;5040313;28;20032;-76
2023/03/02 02:23:04;;;;;;;22.67;11.45;;;;;;;;;;5043859;28;20043;-76
2023/03/02 02:25:51;;;;;;;20.30;10.45;;;;;;;;;;5030162;28;20020;-76
2023/03/02 02:28:26;;;;;;;23.73;11.68;;;;;;;;;;5043015;28;20040;-76
2023/03/02 02:31:12;;;;;;;23.35;11.70;;;;;;;;;;5052640;28;20031;-76
2023/03/02 02:33:40;;;;;;;25.48;11.13;;;;;;;;;;5056026;28;20027;-76
2023/03/02 02:36:13;;;;;;;21.75;10.80;;;;;;;;;;5077405;28;20009;-76
2023/03/02 02:38:39;;;;;;;21.30;11.32;;;;;;;;;;5074341;28;20017;-76
2023/03/02 02:41:10;;;;;;;26.38;12.60;;;;;;;;;;5074251;28;20053;-76
2023/03/02 02:43:35;;;;;;;22.02;10.82;;;;;;;;;;5072570;28;20013;-76
2023/03/02 02:46:01;;;;;;;25.33;12.25;;;;;;;;;;5077305;28;20020;-76
2023/03/02 02:48:29;;;;;;;23.38;11.15;;;;;;;;;;5074527;28;20033;-75
2023/03/02 02:51:01;;;;;;;23.25;11.80;;;;;;;;;;5075439;28;20013;-76
2023/03/02 02:53:57;;;;;;;22.83;11.65;;;;;;;;;;5059031;28;20025;-75
2023/03/02 02:56:25;;;;;;;25.98;11.68;;;;;;;;;;5078167;28;20058;-76
2023/03/02 02:58:52;;;;;;;24.48;12.40;;;;;;;;;;5072471;28;20033;-76
2023/03/02 03:01:24;;;;;;;22.75;10.88;;;;;;;;;;5073844;28;20114;-75
2023/03/02 03:03:56;;;;;;;23.88;11.50;;;;;;;;;;5069986;28;20032;-76
2023/03/02 03:06:25;;;;;;;24.08;12.02;;;;;;;;;;5075010;28;20025;-76
2023/03/02 03:08:54;;;;;;;23.60;12.10;;;;;;;;;;5054437;28;20097;-76
2023/03/02 03:11:29;;;;;;;24.75;12.48;;;;;;;;;;5073428;28;20041;-76
2023/03/02 03:14:01;;;;;;;26.65;12.57;;;;;;;;;;5072784;28;20045;-76
2023/03/02 03:16:28;;;;;;;22.45;11.65;;;;;;;;;;5053958;28;20013;-76
2023/03/02 03:18:57;;;;;;;26.58;12.30;;;;;;;;;;5067590;28;20022;-75
2023/03/02 03:21:23;;;;;;;22.83;11.73;;;;;;;;;;5072653;28;20019;-76
2023/03/02 03:23:48;;;;;;;21.85;10.55;;;;;;;;;;5071883;28;20048;-75
2023/03/02 03:26:14;;;;;;;24.67;11.23;;;;;;;;;;5072268;28;20034;-76
2023/03/02 03:28:39;;;;;;;24.67;11.18;;;;;;;;;;5049642;28;20010;-75
2023/03/02 03:31:05;;;;;;;25.63;11.45;;;;;;;;;;5074351;28;20032;-75
2023/03/02 03:33:30;;;;;;;23.42;11.15;;;;;;;;;;5076658;28;20028;-75
2023/03/02 03:35:56;;;;;;;22.85;11.65;;;;;;;;;;5074774;28;20037;-76
2023/03/02 03:38:21;;;;;;;23.02;11.02;;;;;;;;;;5066149;28;20045;-75
2023/03/02 03:40:46;;;;;;;22.83;10.95;;;;;;;;;;5073493;28;20017;-76
2023/03/02 03:43:14;;;;;;;25.65;11.23;;;;;;;;;;5073213;28;20025;-75
2023/03/02 03:45:39;;;;;;;19.90;10.48;;;;;;;;;;5056470;28;20055;-76
2023/03/02 03:48:05;;;;;;;23.00;11.30;;;;;;;;;;5075623;28;20093;-75
2023/03/02 03:50:31;;;;;;;24.13;11.35;;;;;;;;;;5059639;28;20017;-75
2023/03/02 03:52:57;;;;;;;23.75;11.43;;;;;;;;;;5074157;28;20064;-76
2023/03/02 03:55:22;;;;;;;22.33;10.98;;;;;;;;;;5077468;28;20065;-76
2023/03/02 03:57:48;;;;;;;24.02;11.02;;;;;;;;;;5074010;28;20025;-76
2023/03/02 04:00:18;;;;;;;21.38;10.25;;;;;;;;;;5073667;28;20029;-76
2023/03/02 04:02:43;;;;;;;20.50;10.50;;;;;;;;;;5075582;28;20025;-75
2023/03/02 04:05:10;;;;;;;23.13;10.35;;;;;;;;;;5066611;28;20062;-75
2023/03/02 04:07:36;;;;;;;21.55;10.32;;;;;;;;;;5058009;28;20052;-76
2023/03/02 04:10:03;;;;;;;20.42;10.13;;;;;;;;;;5059117;28;20020;-75
2023/03/02 04:12:34;;;;;;;25.42;11.05;;;;;;;;;;5074090;28;20025;-75
2023/03/02 04:14:59;;;;;;;23.10;10.95;;;;;;;;;;5069488;28;20019;-75
2023/03/02 04:17:25;;;;;;;23.33;10.55;;;;;;;;;;5055776;28;20064;-76
2023/03/02 04:19:50;;;;;;;20.92;10.23;;;;;;;;;;5055104;28;20033;-75
2023/03/02 04:22:16;;;;;;;24.08;10.68;;;;;;;;;;5068208;28;20052;-76
2023/03/02 04:24:42;;;;;;;21.08;10.23;;;;;;;;;;5051962;28;20023;-75
2023/03/02 04:27:08;;;;;;;20.52;10.60;;;;;;;;;;5069520;28;20037;-75
2023/03/02 04:29:34;;;;;;;22.80;10.73;;;;;;;;;;5057246;28;20050;-76
2023/03/02 04:32:00;;;;;;;24.95;11.85;;;;;;;;;;5068017;28;20103;-76
2023/03/02 04:34:25;;;;;;;23.30;10.90;;;;;;;;;;5053218;28;20025;-75
2023/03/02 04:36:51;;;;;;;23.50;10.95;;;;;;;;;;5074482;28;20063;-76
2023/03/02 04:39:17;;;;;;;20.10;9.70;;;;;;;;;;5059209;28;20029;-75
2023/03/02 04:41:43;;;;;;;22.98;11.50;;;;;;;;;;5068346;28;20028;-76
2023/03/02 04:44:09;;;;;;;24.35;10.50;;;;;;;;;;5049353;28;20032;-75
2023/03/02 04:46:34;;;;;;;21.85;9.73;;;;;;;;;;5071020;28;20025;-75
2023/03/02 04:49:00;;;;;;;22.65;9.70;;;;;;;;;;5074210;28;20048;-76
2023/03/02 04:51:28;;;;;;;22.63;10.55;;;;;;;;;;5067075;28;20016;-76
2023/03/02 04:53:56;;;;;;;24.70;10.70;;;;;;;;;;5073519;28;20032;-76
2023/03/02 04:56:22;;;;;;;21.70;10.48;;;;;;;;;;5071105;28;20041;-75
2023/03/02 04:58:47;;;;;;;22.73;10.13;;;;;;;;;;5055298;28;20029;-75
2023/03/02 05:01:14;;;;;;;21.40;10.30;;;;;;;;;;5067184;28;20051;-75
2023/03/02 05:03:40;;;;;;;20.42;9.88;;;;;;;;;;5055565;28;20036;-76
2023/03/02 05:06:06;;;;;;;21.05;9.95;;;;;;;;;;5028994;28;20079;-76
2023/03/02 05:08:32;;;;;;;23.00;10.82;;;;;;;;;;5045955;28;20085;-76
2023/03/02 05:10:57;;;;;;;21.10;10.48;;;;;;;;;;5028056;28;20124;-76
2023/03/02 05:13:24;;;;;;;23.10;10.73;;;;;;;;;;5032330;28;20108;-76
2023/03/02 05:15:50;;;;;;;22.20;10.05;;;;;;;;;;5028135;28;20526;-76
2023/03/02 05:18:16;;;;;;;24.50;10.38;;;;;;;;;;5039757;28;20025;-76
2023/03/02 05:20:42;;;;;;;22.50;10.75;;;;;;;;;;5030672;28;20021;-76
2023/03/02 05:23:10;;;;;;;21.52;10.77;;;;;;;;;;5045215;28;20434;-76
2023/03/02 05:25:37;;;;;;;22.77;10.00;;;;;;;;;;5046681;28;20167;-76
2023/03/02 05:28:03;;;;;;;21.10;10.02;;;;;;;;;;5021691;28;20033;-76
2023/03/02 05:30:31;;;;;;;22.77;9.80;;;;;;;;;;5040258;28;20037;-76
2023/03/02 05:32:57;;;;;;;22.83;10.77;;;;;;;;;;5041222;28;20071;-76
2023/03/02 05:35:23;;;;;;;22.40;10.10;;;;;;;;;;5042096;28;20071;-76
2023/03/02 05:37:48;;;;;;;21.58;10.57;;;;;;;;;;5045027;28;20267;-76
2023/03/02 05:40:20;;;;;;;23.73;10.43;;;;;;;;;;5030969;28;20025;-76
2023/03/02 05:42:47;;;;;;;26.08;11.05;;;;;;;;;;5049350;28;20029;-76
2023/03/02 05:45:21;;;;;;;24.20;10.45;;;;;;;;;;5048156;28;20025;-76
2023/03/02 05:47:47;;;;;;;23.90;10.65;;;;;;;;;;5045031;28;20029;-76
2023/03/02 05:50:13;;;;;;;20.38;10.55;;;;;;;;;;5030412;28;20025;-76
2023/03/02 05:52:38;;;;;;;21.38;9.82;;;;;;;;;;5049239;28;20037;-76
2023/03/02 05:55:04;;;;;;;23.73;9.85;;;;;;;;;;5032396;28;20033;-76
2023/03/02 05:57:29;;;;;;;21.48;10.50;;;;;;;;;;5034248;28;20036;-76
2023/03/02 05:59:55;;;;;;;21.77;9.32;;;;;;;;;;5046456;28;20476;-77
2023/03/02 06:02:20;;;;;;;24.90;10.65;;;;;;;;;;5044596;28;20058;-76
2023/03/02 06:04:45;;;;;;;25.67;11.10;;;;;;;;;;5039314;28;20051;-76
2023/03/02 06:07:11;;;;;;;20.52;9.80;;;;;;;;;;5052625;28;20389;-76
2023/03/02 06:09:38;;;;;;;22.65;10.32;;;;;;;;;;5029139;28;20056;-76
2023/03/02 06:12:04;;;;;;;22.02;10.77;;;;;;;;;;5047601;28;20105;-76
2023/03/02 06:14:30;;;;;;;22.88;10.63;;;;;;;;;;5034078;28;20408;-76
2023/03/02 06:16:57;;;;;;;22.13;11.45;;;;;;;;;;5030319;28;20067;-76
2023/03/02 06:19:22;;;;;;;22.30;10.10;;;;;;;;;;5035775;28;20374;-76
2023/03/02 06:21:47;;;;;;;22.42;10.48;;;;;;;;;;5050905;28;20035;-76
2023/03/02 06:24:13;;;;;;;24.67;10.90;;;;;;;;;;5046263;28;20496;-76
2023/03/02 06:26:38;;;;;;;27.23;10.63;;;;;;;;;;5046875;28;20017;-76
2023/03/02 06:29:04;;;;;;;21.95;10.63;;;;;;;;;;5042028;28;20461;-77
2023/03/02 06:31:30;;;;;;;22.40;10.13;;;;;;;;;;5049964;28;20071;-76
2023/03/02 06:33:56;;;;;;;24.35;10.13;;;;;;;;;;5032783;28;20166;-76
2023/03/02 06:36:21;;;;;;;24.02;10.35;;;;;;;;;;5036309;28;20020;-76
2023/03/02 06:38:47;;;;;;;22.50;10.77;;;;;;;;;;5046023;28;20397;-76
2023/03/02 06:41:12;;;;;;;23.52;10.55;;;;;;;;;;5042791;28;20037;-76
2023/03/02 06:43:37;;;;;;;26.60;11.13;;;;;;;;;;5026223;28;20025;-76
2023/03/02 06:46:03;;;;;;;23.80;10.18;;;;;;;;;;5047838;28;20164;-76
2023/03/02 06:48:28;;;;;;;22.75;10.05;;;;;;;;;;5047356;28;20043;-76
2023/03/02 06:50:54;;;;;;;22.63;10.82;;;;;;;;;;5025202;28;20475;-76
2023/03/02 06:53:22;;;;;;;20.33;9.98;;;;;;;;;;5021786;28;20059;-76
2023/03/02 06:55:47;;;;;;;20.15;10.25;;;;;;;;;;5039794;28;20554;-76
2023/03/02 06:58:13;;;;;;;24.33;10.65;;;;;;;;;;5047329;28;20086;-76
2023/03/02 07:00:39;;;;;;;21.52;9.75;;;;;;;;;;5035080;28;20503;-76
2023/03/02 07:03:04;;;;;;;23.75;9.95;;;;;;;;;;5036133;28;20025;-76
2023/03/02 07:05:32;;;;;;;24.45;10.82;;;;;;;;;;5047870;28;20036;-76
2023/03/02 07:07:58;;;;;;;24.92;10.45;;;;;;;;;;5045223;28;20123;-76
2023/03/02 07:10:24;;;;;;;21.75;10.30;;;;;;;;;;5045609;28;20029;-76
2023/03/02 07:12:49;;;;;;;23.20;10.30;;;;;;;;;;5026836;28;20029;-77
2023/03/02 07:15:15;;;;;;;19.25;9.70;;;;;;;;;;5035107;28;20443;-76
2023/03/02 07:17:43;;;;;;;25.73;11.10;;;;;;;;;;5034507;28;20116;-76
2023/03/02 07:20:10;;;;;;;23.95;10.18;;;;;;;;;;5050526;28;20437;-76
2023/03/02 07:22:36;;;;;;;22.60;9.77;;;;;;;;;;5031800;28;20028;-76
2023/03/02 07:25:01;;;;;;;20.83;9.73;;;;;;;;;;5055504;28;20059;-76
2023/03/02 07:27:27;;;;;;;23.42;10.80;;;;;;;;;;5043120;28;20028;-76
2023/03/02 07:29:52;;;;;;;24.60;10.68;;;;;;;;;;5029428;28;20061;-76
2023/03/02 07:32:18;;;;;;;23.83;10.25;;;;;;;;;;5030579;28;20029;-76
2023/03/02 07:34:43;;;;;;;23.00;10.43;;;;;;;;;;5034236;28;20043;-77
2023/03/02 07:37:09;;;;;;;21.50;10.20;;;;;;;;;;5049417;28;20024;-77
2023/03/02 07:39:35;;;;;;;24.00;11.20;;;;;;;;;;5053123;28;20024;-76
2023/03/02 07:42:03;;;;;;;23.05;11.00;;;;;;;;;;5052101;28;20476;-76
2023/03/02 07:44:29;;;;;;;22.20;10.65;;;;;;;;;;5031256;28;20033;-76
2023/03/02 07:46:55;;;;;;;20.95;9.82;;;;;;;;;;5046460;28;20032;-76
2023/03/02 07:49:20;;;;;;;23.80;10.70;;;;;;;;;;5029910;28;20117;-77
2023/03/02 07:51:46;;;;;;;22.60;9.48;;;;;;;;;;5046824;28;20024;-76
2023/03/02 07:54:11;;;;;;;24.90;9.90;;;;;;;;;;5029573;28;20029;-77
2023/03/02 07:56:36;;;;;;;22.05;9.93;;;;;;;;;;5045914;28;20429;-77
2023/03/02 07:59:02;;;;;;;23.45;9.85;;;;;;;;;;5049129;28;20791;-76
2023/03/02 08:01:27;;;;;;;24.58;10.25;;;;;;;;;;5033562;28;20029;-76
2023/03/02 08:03:53;;;;;;;25.80;10.38;;;;;;;;;;5018170;28;20131;-77
2023/03/02 08:06:19;;;;;;;21.98;9.85;;;;;;;;;;5035264;28;20068;-76
2023/03/02 08:08:44;;;;;;;22.95;10.27;;;;;;;;;;5048714;28;20088;-76
2023/03/02 08:11:15;;;;;;;23.08;10.05;;;;;;;;;;5028302;28;20037;-76
2023/03/02 08:13:41;;;;;;;26.40;10.45;;;;;;;;;;5050073;28;20027;-76
2023/03/02 08:16:09;;;;;;;25.35;10.65;;;;;;;;;;5035735;28;20037;-77
2023/03/02 08:18:36;;;;;;;22.58;11.13;;;;;;;;;;5028306;28;20028;-76
2023/03/02 08:21:02;;;;;;;23.38;10.27;;;;;;;;;;5030828;28;20388;-76
2023/03/02 08:23:27;;;;;;;23.67;10.75;;;;;;;;;;5041004;28;20400;-76
2023/03/02 08:25:53;;;;;;;24.23;10.85;;;;;;;;;;5047482;28;20029;-76
2023/03/02 08:28:20;;;;;;;22.35;10.68;;;;;;;;;;5046689;28;20029;-77
2023/03/02 08:30:54;;;;;;;21.20;9.43;;;;;;;;;;5032207;28;20032;-76
2023/03/02 08:33:19;;;;;;;20.60;9.50;;;;;;;;;;5045623;28;20051;-77
2023/03/02 08:35:57;;;;;;;21.30;9.93;;;;;;;;;;5043507;28;20469;-77
2023/03/02 08:38:23;;;;;;;21.38;9.48;;;;;;;;;;5032842;28;20051;-77
2023/03/02 08:40:50;;;;;;;22.05;9.98;;;;;;;;;;5052429;28;20060;-77
2023/03/02 08:43:15;;;;;;;20.00;8.73;;;;;;;;;;5033330;28;20078;-77
2023/03/02 08:45:41;;;;;;;20.25;9.48;;;;;;;;;;5035522;28;20056;-77
2023/03/02 08:48:06;;;;;;;22.23;9.77;;;;;;;;;;5048358;28;20028;-76
2023/03/02 08:50:31;;;;;;;21.27;8.98;;;;;;;;;;5052277;28;20063;-77
2023/03/02 08:52:57;;;;;;;22.95;8.95;;;;;;;;;;5035056;28;20033;-77
2023/03/02 08:55:22;;;;;;;21.38;8.98;;;;;;;;;;5050272;28;20053;-77
2023/03/02 08:57:48;;;;;;;21.13;9.02;;;;;;;;;;5049362;28;20028;-77
2023/03/02 09:00:15;;;;;;;19.92;8.77;;;;;;;;;;5051040;28;20095;-77
2023/03/02 09:02:41;;;;;;;21.15;9.35;;;;;;;;;;5049379;28;20078;-77
2023/03/02 09:05:06;;;;;;;18.85;8.25;;;;;;;;;;5049655;28;20029;-77
2023/03/02 09:07:32;;;;;;;19.55;8.85;;;;;;;;;;5032721;28;20088;-77
2023/03/02 09:09:57;;;;;;;19.45;9.43;;;;;;;;;;5054650;28;20087;-77
2023/03/02 09:12:23;;;;;;;24.45;9.77;;;;;;;;;;5053437;28;20059;-77
2023/03/02 09:14:48;;;;;;;19.38;8.43;;;;;;;;;;5030228;28;20029;-77
2023/03/02 09:17:14;;;;;;;25.85;9.50;;;;;;;;;;5021620;28;20051;-77
2023/03/02 09:19:40;;;;;;;20.52;8.90;;;;;;;;;;5032254;28;20029;-77
2023/03/02 09:22:09;;;;;;;21.48;9.25;;;;;;;;;;5031972;28;20025;-77
2023/03/02 09:24:35;;;;;;;22.10;9.38;;;;;;;;;;5053604;28;20025;-77
2023/03/02 09:27:02;;;;;;;18.73;8.38;;;;;;;;;;5052285;28;20037;-77
2023/03/02 09:29:27;;;;;;;19.90;8.85;;;;;;;;;;5054485;28;20052;-77
2023/03/02 09:31:53;;;;;;;19.65;8.18;;;;;;;;;;5036361;28;20025;-77
2023/03/02 09:34:19;;;;;;;19.25;7.93;;;;;;;;;;5037177;28;20029;-77
2023/03/02 09:36:44;;;;;;;21.25;9.40;;;;;;;;;;5036166;28;20078;-77
2023/03/02 09:39:11;;;;;;;18.70;7.95;;;;;;;;;;5052536;28;20518;-77
2023/03/02 09:42:34;;;;;;;19.67;9.10;;;;;;;;;;5032850;28;20032;-77
2023/03/02 09:45:14;;;;;;;20.98;9.38;;;;;;;;;;4962991;28;20034;-77
2023/03/02 09:47:51;;;;;;;16.17;8.25;;;;;;;;;;4983936;28;20442;-77
2023/03/02 09:50:35;;;;;;;18.90;8.25;;;;;;;;;;5034735;28;20087;-77
2023/03/02 09:53:26;;;;;;;20.42;8.07;;;;;;;;;;5051333;28;20032;-77
2023/03/02 09:55:55;;;;;;;18.77;9.00;;;;;;;;;;5050985;28;20079;-77
2023/03/02 09:58:25;;;;;;;21.95;9.75;;;;;;;;;;5050640;28;20376;-77
2023/03/02 10:00:51;;;;;;;20.05;8.65;;;;;;;;;;5050560;28;20040;-77
2023/03/02 10:03:22;;;;;;;19.80;9.30;;;;;;;;;;5047629;28;20028;-77
2023/03/02 10:05:50;;;;;;;16.02;7.78;;;;;;;;;;5050448;28;20028;-77
2023/03/02 10:08:21;;;;;;;21.40;9.27;;;;;;;;;;5046417;28;20416;-77
2023/03/02 10:11:05;;;;;;;18.38;9.00;;;;;;;;;;5044880;28;20025;-77
2023/03/02 10:13:46;;;;;;;19.30;8.18;;;;;;;;;;5048679;28;20024;-77
2023/03/02 10:16:18;;;;;;;18.45;7.93;;;;;;;;;;5049689;28;20028;-77
2023/03/02 10:19:08;;;;;;;20.30;9.15;;;;;;;;;;5053015;28;20024;-77
2023/03/02 10:21:40;;;;;;;22.38;9.55;;;;;;;;;;5032711;28;20431;-77
2023/03/02 10:24:34;;;;;;;19.65;8.73;;;;;;;;;;5049129;28;20118;-77
2023/03/02 10:27:25;;;;;;;20.73;8.82;;;;;;;;;;5046125;28;20028;-77
2023/03/02 10:29:59;;;;;;;18.77;8.25;;;;;;;;;;5049153;28;20721;-77
2023/03/02 10:32:47;;;;;;;23.20;9.32;;;;;;;;;;5048318;28;20507;-77
2023/03/02 10:35:17;;;;;;;21.83;8.70;;;;;;;;;;5047963;28;20025;-77
2023/03/02 10:37:42;;;;;;;20.63;8.60;;;;;;;;;;5047112;28;20021;-77
2023/03/02 10:40:39;;;;;;;18.83;8.70;;;;;;;;;;5050387;28;20036;-77
2023/03/02 10:43:23;;;;;;;19.35;8.70;;;;;;;;;;5029760;28;20124;-77
2023/03/02 10:46:07;;;;;;;18.50;8.35;;;;;;;;;;5048410;28;20016;-77
2023/03/02 10:48:48;;;;;;;19.45;8.40;;;;;;;;;;5057053;28;20017;-77
2023/03/02 10:51:41;;;;;;;20.98;9.38;;;;;;;;;;5030886;28;20032;-77
2023/03/02 10:54:12;;;;;;;23.60;8.68;;;;;;;;;;5050296;28;20562;-77
2023/03/02 10:56:41;;;;;;;19.05;9.32;;;;;;;;;;5037693;28;20020;-77
2023/03/02 10:59:30;;;;;;;18.58;9.32;;;;;;;;;;5054815;28;20025;-77
2023/03/02 11:01:59;;;;;;;16.50;8.00;;;;;;;;;;5034984;28;20025;-77
2023/03/02 11:04:24;;;;;;;17.05;7.82;;;;;;;;;;5041880;28;20110;-77
2023/03/02 11:06:51;;;;;;;18.40;8.93;;;;;;;;;;5052872;28;20037;-77
2023/03/02 11:09:17;;;;;;;21.80;9.00;;;;;;;;;;5039496;28;20013;-77
2023/03/02 11:11:52;;;;;;;18.60;8.20;;;;;;;;;;5033913;28;20029;-77
2023/03/02 11:14:17;;;;;;;18.95;8.77;;;;;;;;;;5052699;28;20540;-77
2023/03/02 11:16:43;;;;;;;16.15;8.13;;;;;;;;;;5033487;28;20163;-77
2023/03/02 11:19:32;;;;;;;18.10;7.93;;;;;;;;;;5054424;28;20029;-77
2023/03/02 11:22:37;;;;;;;19.15;8.70;;;;;;;;;;5034318;28;20090;-77
2023/03/02 11:25:07;;;;;;;14.57;7.28;;;;;;;;;;5035983;28;20036;-77
2023/03/02 11:27:36;;;;;;;14.57;7.18;;;;;;;;;;5049331;28;20116;-77
2023/03/02 11:30:10;;;;;;;16.38;7.15;;;;;;;;;;5036691;28;20135;-77
2023/03/02 11:32:42;;;;;;;14.57;6.93;;;;;;;;;;5036348;28;20053;-77
2023/03/02 11:35:29;;;;;;;14.77;7.40;;;;;;;;;;5046848;28;20025;-77
2023/03/02 11:37:59;;;;;;;17.02;6.60;;;;;;;;;;5052573;28;20066;-76
2023/03/02 11:40:33;;;;;;;14.35;7.15;;;;;;;;;;5056966;28;20032;-77
2023/03/02 11:42:59;;;;;;;17.27;7.40;;;;;;;;;;5044978;28;20090;-76
2023/03/02 11:45:29;;;;;;;13.05;6.72;;;;;;;;;;5050543;28;20021;-78
2023/03/02 11:48:27;;;;;;;16.40;7.40;;;;;;;;;;5061048;28;20025;-77
2023/03/02 11:51:00;;;;;;;13.82;6.82;;;;;;;;;;5021215;28;20041;-77
2023/03/02 11:53:32;;;;;;;14.35;6.82;;;;;;;;;;5042934;28;20021;-77
2023/03/02 11:55:57;;;;;;;15.07;6.45;;;;;;;;;;5041024;28;20028;-76
2023/03/02 11:58:27;;;;;;;13.82;6.80;;;;;;;;;;5059684;28;20028;-76
2023/03/02 12:00:54;;;;;;;13.93;6.43;;;;;;;;;;5059921;28;20017;-76
2023/03/02 12:03:30;;;;;;;14.88;6.65;;;;;;;;;;5038802;28;20024;-77
2023/03/02 12:06:03;;;;;;;12.65;6.45;;;;;;;;;;5054919;28;20489;-77
2023/03/02 12:08:38;;;;;;;14.60;6.03;;;;;;;;;;5037632;28;20095;-76
2023/03/02 12:11:27;;;;;;;12.52;5.97;;;;;;;;;;5041110;28;20539;-77
2023/03/02 12:13:59;;;;;;;12.93;5.72;;;;;;;;;;5041716;28;20389;-77
2023/03/02 12:16:31;;;;;;;11.60;5.70;;;;;;;;;;5037475;28;20477;-77
2023/03/02 12:18:56;;;;;;;13.52;6.13;;;;;;;;;;5040243;28;20028;-76
2023/03/02 12:21:23;;;;;;;11.13;5.18;;;;;;;;;;5059071;28;20033;-76
2023/03/02 12:23:48;;;;;;;11.02;5.50;;;;;;;;;;5042186;28;20039;-76
2023/03/02 12:26:20;;;;;;;12.20;5.50;;;;;;;;;;5057418;28;20127;-77
2023/03/02 12:29:00;;;;;;;11.75;5.88;;;;;;;;;;5056368;28;20033;-76
2023/03/02 12:31:38;;;;;;;11.93;5.78;;;;;;;;;;5058730;28;20491;-76
2023/03/02 12:34:26;;;;;;;13.40;5.30;;;;;;;;;;5046127;28;20495;-77
2023/03/02 12:36:59;;;;;;;11.55;5.82;;;;;;;;;;5055942;28;20025;-76
2023/03/02 12:39:42;;;;;;;14.98;6.28;;;;;;;;;;5044735;28;20540;-76
2023/03/02 12:42:36;;;;;;;11.60;4.97;;;;;;;;;;5060126;28;20094;-76
2023/03/02 12:45:20;;;;;;;11.02;5.43;;;;;;;;;;5052624;28;20051;-77
2023/03/02 12:47:50;;;;;;;12.13;5.82;;;;;;;;;;5051960;28;20469;-76
2023/03/02 12:50:23;;;;;;;12.85;5.82;;;;;;;;;;5034496;28;20031;-77
2023/03/02 12:53:01;;;;;;;10.40;5.28;;;;;;;;;;5033485;28;20096;-77
2023/03/02 12:55:27;;;;;;;11.10;5.35;;;;;;;;;;5043570;28;20037;-77
2023/03/02 12:57:55;;;;;;;10.70;5.53;;;;;;;;;;5037277;28;20043;-77
2023/03/02 13:00:26;;;;;;;13.15;5.78;;;;;;;;;;5035071;28;20477;-77
2023/03/02 13:02:55;;;;;;;12.10;5.70;;;;;;;;;;5052893;28;20051;-77
2023/03/02 13:05:29;;;;;;;13.68;5.20;;;;;;;;;;5054011;28;20025;-77
2023/03/02 13:08:13;;;;;;;12.77;5.90;;;;;;;;;;5033089;28;20032;-77
2023/03/02 13:10:42;;;;;;;11.48;5.47;;;;;;;;;;5051983;28;20488;-77
2023/03/02 13:13:38;;;;;;;14.43;5.93;;;;;;;;;;5034924;28;20052;-77
2023/03/02 13:16:16;;;;;;;11.50;5.50;;;;;;;;;;5049886;28;20690;-77
2023/03/02 13:18:43;;;;;;;10.07;5.03;;;;;;;;;;5035105;28;20017;-76
2023/03/02 13:21:12;;;;;;;13.07;5.28;;;;;;;;;;5033161;28;20031;-77
2023/03/02 13:23:45;;;;;;;10.77;5.25;;;;;;;;;;5049187;28;20447;-77
2023/03/02 13:26:30;;;;;;;13.10;5.35;;;;;;;;;;5051265;28;20043;-77
2023/03/02 13:29:18;;;;;;;10.77;5.22;;;;;;;;;;5051539;28;20033;-77
2023/03/02 13:31:43;;;;;;;9.85;4.80;;;;;;;;;;5054008;28;20384;-77
2023/03/02 13:34:19;;;;;;;11.88;5.20;;;;;;;;;;5017352;28;20091;-77
2023/03/02 13:36:45;;;;;;;10.45;5.13;;;;;;;;;;5046464;28;20436;-77
2023/03/02 13:39:20;;;;;;;13.00;5.05;;;;;;;;;;5042303;28;20021;-76
2023/03/02 13:42:02;;;;;;;8.55;4.95;;;;;;;;;;5055438;28;20117;-77
2023/03/02 13:44:32;;;;;;;10.48;5.32;;;;;;;;;;5048641;28;20036;-76
2023/03/02 13:46:59;;;;;;;11.27;5.53;;;;;;;;;;5044724;28;20167;-76
2023/03/02 13:49:26;;;;;;;10.63;5.43;;;;;;;;;;5054949;28;20089;-76
2023/03/02 13:51:59;;;;;;;10.48;4.80;;;;;;;;;;5055323;28;20025;-76
2023/03/02 13:54:28;;;;;;;12.00;5.43;;;;;;;;;;5052120;28;20025;-78
2023/03/02 13:56:56;;;;;;;11.68;5.38;;;;;;;;;;5033975;28;20044;-76
2023/03/02 13:59:22;;;;;;;9.85;4.88;;;;;;;;;;5034787;28;20025;-77
2023/03/02 14:01:47;;;;;;;12.23;5.60;;;;;;;;;;5038881;28;20040;-77
2023/03/02 14:04:17;;;;;;;11.45;5.40;;;;;;;;;;5039519;28;20388;-77
2023/03/02 14:06:44;;;;;;;10.38;4.85;;;;;;;;;;5055790;28;20029;-77
2023/03/02 14:09:09;;;;;;;11.63;5.20;;;;;;;;;;5039761;28;20025;-77
2023/03/02 14:11:40;;;;;;;10.02;4.63;;;;;;;;;;5055070;28;20029;-76
2023/03/02 14:14:06;;;;;;;9.93;5.10;;;;;;;;;;5047732;28;20358;-77
2023/03/02 14:16:34;;;;;;;9.07;4.68;;;;;;;;;;5034465;28;20048;-77
2023/03/02 14:19:00;;;;;;;9.05;5.00;;;;;;;;;;5051099;28;20017;-76
2023/03/02 14:21:27;;;;;;;11.23;5.40;;;;;;;;;;5029855;28;20063;-76
2023/03/02 14:23:53;;;;;;;10.43;4.65;;;;;;;;;;5053362;28;20021;-77
2023/03/02 14:26:18;;;;;;;9.85;5.00;;;;;;;;;;5045325;28;20029;-77
2023/03/02 14:28:43;;;;;;;12.40;5.45;;;;;;;;;;5054756;28;20060;-77
2023/03/02 14:31:09;;;;;;;10.10;5.10;;;;;;;;;;5050749;28;20028;-77
2023/03/02 14:33:35;;;;;;;11.35;5.50;;;;;;;;;;5030873;28;20032;-77
2023/03/02 14:36:02;;;;;;;11.13;5.30;;;;;;;;;;5054530;28;20388;-77
2023/03/02 14:38:28;;;;;;;8.52;4.60;;;;;;;;;;5035223;28;20560;-77
2023/03/02 14:40:54;;;;;;;11.90;5.30;;;;;;;;;;5033381;28;20077;-77